Time;durP1;ratioP1;P1;durP2;ratioP2;P2;SDS_P1;SDS_P2;PMS_P1;PMS_P2;Temp;Humidity;BMP_temperature;BMP_pressure;BME280_temperature;BME280_humidity;BME280_pressure;Samples;Min_cycle;Max_cycle;Signal;HPM_P1;HPM_P2
2022/06/24 00:01:59;;;;;;;17.63;10.25;;;;;;;22.20;92.21;100710.22;5016532;28;20120;-84
2022/06/24 00:04:28;;;;;;;17.45;10.63;;;;;;;22.17;92.06;100699.69;5032311;28;20014;-83
2022/06/24 00:06:54;;;;;;;15.80;9.85;;;;;;;22.16;92.00;100703.41;5015530;28;20017;-84
2022/06/24 00:09:22;;;;;;;11.95;9.07;;;;;;;22.15;91.93;100704.41;5032039;28;20025;-84
2022/06/24 00:12:16;;;;;;;12.75;8.90;;;;;;;22.15;91.88;100698.16;5033407;28;20026;-82
2022/06/24 00:14:45;;;;;;;13.20;9.30;;;;;;;22.17;91.68;100696.16;5031886;28;20036;-82
2022/06/24 00:17:12;;;;;;;18.80;9.88;;;;;;;22.13;91.71;100690.22;5031632;28;20017;-82
2022/06/24 00:20:01;;;;;;;15.15;9.45;;;;;;;22.13;91.93;100686.69;5032059;28;20156;-82
2022/06/24 00:22:29;;;;;;;13.30;10.10;;;;;;;22.14;92.05;100683.81;5031907;28;20061;-82
2022/06/24 00:25:11;;;;;;;18.40;9.93;;;;;;;22.21;91.94;100681.38;5033233;28;20083;-83
2022/06/24 00:27:38;;;;;;;13.63;10.20;;;;;;;22.27;92.13;100676.22;5029347;28;20021;-82
2022/06/24 00:30:56;;;;;;;14.73;9.45;;;;;;;22.38;90.37;100674.41;5031740;28;20041;-82
2022/06/24 00:33:23;;;;;;;13.90;9.80;;;;;;;22.45;90.21;100688.13;5025395;28;20048;-82
2022/06/24 00:35:51;;;;;;;12.57;8.88;;;;;;;22.45;90.31;100701.63;4997222;28;20075;-82
2022/06/24 00:38:33;;;;;;;14.55;8.70;;;;;;;22.40;90.24;100705.63;5031428;28;20051;-83
2022/06/24 00:41:01;;;;;;;;;;;;;;;22.37;91.77;100727.47;5032241;28;20025;-82
2022/06/24 00:43:48;;;;;;;17.45;10.60;;;;;;;22.27;96.79;100737.44;5031698;28;19920;-83
2022/06/24 00:46:25;;;;;;;25.92;11.80;;;;;;;21.89;100.00;100755.41;5032559;28;20527;-85
2022/06/24 00:48:52;;;;;;;29.80;14.40;;;;;;;21.33;100.00;100768.63;5012068;28;20499;-85
2022/06/24 00:51:20;;;;;;;36.75;17.95;;;;;;;20.74;100.00;100791.88;5012216;28;20060;-85
2022/06/24 00:53:51;;;;;;;29.63;18.15;;;;;;;20.24;100.00;100787.22;5011973;28;20405;-84
2022/06/24 00:56:18;;;;;;;;;;;;;;;19.93;100.00;100792.56;5012349;28;20056;-84
2022/06/24 00:58:58;;;;;;;28.40;19.85;;;;;;;19.68;100.00;100807.19;5030584;28;19913;-84
2022/06/24 01:01:29;;;;;;;32.28;22.58;;;;;;;19.56;100.00;100825.19;5011880;28;20030;-84
2022/06/24 01:03:56;;;;;;;34.03;24.50;;;;;;;19.40;100.00;100821.09;4995586;28;20084;-85
2022/06/24 01:06:23;;;;;;;37.40;25.40;;;;;;;19.32;100.00;100816.34;5012079;28;20022;-85
2022/06/24 01:08:49;;;;;;;33.38;24.52;;;;;;;19.20;100.00;100808.47;5012125;28;20029;-87
2022/06/24 01:11:33;;;;;;;34.63;24.88;;;;;;;19.14;100.00;100807.13;5014936;28;20032;-85
2022/06/24 01:13:59;;;;;;;35.83;27.10;;;;;;;19.18;100.00;100811.25;5031883;28;20022;-87
2022/06/24 01:16:26;;;;;;;38.58;27.35;;;;;;;19.25;100.00;100817.81;5031997;28;20564;-86
2022/06/24 01:18:52;;;;;;;33.05;25.00;;;;;;;19.19;100.00;100829.06;5031427;28;20033;-85
2022/06/24 01:21:30;;;;;;;35.50;27.08;;;;;;;19.18;100.00;100842.63;5031735;28;20095;-84
2022/06/24 01:24:04;;;;;;;36.50;27.27;;;;;;;19.22;100.00;100844.06;5031867;28;20029;-85
2022/06/24 01:26:29;;;;;;;41.83;29.45;;;;;;;19.22;100.00;100846.75;5014908;28;20070;-84
2022/06/24 01:28:54;;;;;;;35.47;27.40;;;;;;;19.16;100.00;100840.06;5015002;28;20393;-84
2022/06/24 01:31:20;;;;;;;42.35;29.80;;;;;;;19.11;100.00;100829.69;4995156;28;20390;-84
2022/06/24 01:33:45;;;;;;;38.80;28.60;;;;;;;19.08;100.00;100829.06;5011374;28;20037;-85
2022/06/24 01:36:11;;;;;;;42.13;29.38;;;;;;;19.04;100.00;100830.31;5020478;28;20400;-86
2022/06/24 01:38:37;;;;;;;41.20;29.90;;;;;;;19.01;100.00;100823.38;5014200;28;20029;-84
2022/06/24 01:41:02;;;;;;;40.15;30.88;;;;;;;19.05;100.00;100815.91;4997938;28;20125;-84
2022/06/24 01:43:28;;;;;;;51.72;34.67;;;;;;;19.24;100.00;100796.47;5014354;28;20453;-84
2022/06/24 01:45:53;;;;;;;48.85;33.70;;;;;;;19.28;100.00;100798.81;5014558;28;20045;-84
2022/06/24 01:48:20;;;;;;;33.22;24.42;;;;;;;19.22;100.00;100795.75;5014503;28;20025;-84
2022/06/24 01:50:46;;;;;;;33.13;22.42;;;;;;;19.16;100.00;100789.06;5031198;28;20478;-84
2022/06/24 01:53:11;;;;;;;32.53;22.23;;;;;;;19.11;100.00;100772.47;5037400;28;20040;-85
2022/06/24 01:55:37;;;;;;;27.48;20.33;;;;;;;19.04;100.00;100755.16;5018315;28;20091;-85
2022/06/24 01:58:02;;;;;;;24.45;18.15;;;;;;;18.93;100.00;100724.72;5034628;28;20067;-85
2022/06/24 02:00:29;;;;;;;19.95;13.68;;;;;;;18.68;100.00;100709.72;5002655;28;20072;-85
2022/06/24 02:02:54;;;;;;;24.85;15.95;;;;;;;18.59;100.00;100714.00;5018480;28;20029;-85
2022/06/24 02:05:20;;;;;;;21.80;15.82;;;;;;;18.50;100.00;100709.38;5035148;28;20037;-85
2022/06/24 02:07:45;;;;;;;21.25;15.93;;;;;;;18.46;100.00;100719.50;5012545;28;20009;-84
2022/06/24 02:15:39;;;;;;;23.13;17.40;;;;;;;18.54;100.00;100726.09;5060885;28;20040;-85
2022/06/24 02:18:05;;;;;;;24.83;18.13;;;;;;;18.63;100.00;100722.66;5026986;28;20009;-85
2022/06/24 02:20:31;;;;;;;27.83;18.65;;;;;;;18.69;100.00;100714.13;5043825;28;20014;-85
2022/06/24 02:22:56;;;;;;;24.17;17.58;;;;;;;18.67;100.00;100711.56;5043647;28;20052;-84
2022/06/24 02:25:21;;;;;;;22.60;17.25;;;;;;;18.51;100.00;100703.88;5036346;28;20068;-85
2022/06/24 02:27:47;;;;;;;23.65;16.35;;;;;;;18.46;100.00;100686.47;5021485;28;20040;-85
2022/06/24 02:30:12;;;;;;;23.10;17.30;;;;;;;18.47;100.00;100681.00;4999080;28;20036;-85
2022/06/24 02:32:38;;;;;;;21.58;17.90;;;;;;;18.44;100.00;100677.69;4998376;28;20120;-85
2022/06/24 02:35:04;;;;;;;25.10;18.45;;;;;;;18.40;100.00;100673.56;4993472;28;20025;-85
2022/06/24 02:37:48;;;;;;;23.85;17.42;;;;;;;18.44;100.00;100683.94;5035856;28;20516;-85
2022/06/24 02:42:59;;;;;;;23.90;18.42;;;;;;;18.56;100.00;100687.44;5014869;28;20036;-86
2022/06/24 02:45:25;;;;;;;21.70;17.50;;;;;;;18.57;100.00;100689.16;5009050;28;20052;-84
2022/06/24 02:47:50;;;;;;;24.00;17.70;;;;;;;18.58;100.00;100693.53;5035071;28;20465;-85
2022/06/24 02:50:16;;;;;;;24.50;18.27;;;;;;;18.54;100.00;100683.19;5000325;28;20037;-85
2022/06/24 02:52:41;;;;;;;25.45;18.35;;;;;;;18.52;100.00;100667.22;5033608;28;20079;-86
2022/06/24 02:55:08;;;;;;;22.20;17.75;;;;;;;18.48;100.00;100653.22;5016624;28;20021;-85
2022/06/24 02:57:33;;;;;;;24.40;17.98;;;;;;;18.46;100.00;100654.31;5032928;28;20045;-84
2022/06/24 02:59:58;;;;;;;24.92;18.23;;;;;;;18.47;100.00;100662.22;5016958;28;20481;-84
2022/06/24 03:02:24;;;;;;;22.73;17.52;;;;;;;18.54;100.00;100669.78;5033482;28;20120;-84
2022/06/24 03:04:49;;;;;;;21.13;17.30;;;;;;;18.55;100.00;100666.97;5035216;28;20439;-81
2022/06/24 03:07:15;;;;;;;21.92;17.70;;;;;;;18.55;100.00;100674.16;5035378;28;20025;-86
2022/06/24 03:09:40;;;;;;;22.17;16.92;;;;;;;18.59;100.00;100668.41;5017495;28;20026;-83
2022/06/24 03:12:07;;;;;;;19.70;15.98;;;;;;;18.62;100.00;100673.53;5017894;28;20041;-84
2022/06/24 03:14:32;;;;;;;23.27;16.45;;;;;;;18.62;100.00;100675.34;5016633;28;20022;-84
2022/06/24 03:16:58;;;;;;;18.27;15.45;;;;;;;18.64;100.00;100686.81;5016367;28;20424;-84
2022/06/24 03:19:26;;;;;;;16.67;14.02;;;;;;;18.66;100.00;100698.28;5016358;28;20128;-85
2022/06/24 03:21:52;;;;;;;17.95;14.40;;;;;;;18.65;100.00;100700.09;5032774;28;20034;-85
2022/06/24 03:24:18;;;;;;;16.92;13.32;;;;;;;18.67;100.00;100716.09;5016768;28;20067;-85
2022/06/24 03:26:43;;;;;;;17.55;12.20;;;;;;;18.63;100.00;100712.78;5032936;28;20026;-85
2022/06/24 03:29:09;;;;;;;14.38;12.32;;;;;;;18.61;100.00;100706.69;5016407;28;20155;-85
2022/06/24 03:31:34;;;;;;;15.93;12.35;;;;;;;18.58;100.00;100698.03;5032739;28;20022;-85
2022/06/24 03:33:59;;;;;;;13.68;11.95;;;;;;;18.59;100.00;100692.53;5016657;28;20041;-85
2022/06/24 03:36:25;;;;;;;16.63;12.85;;;;;;;18.50;100.00;100686.13;5016321;28;20110;-85
2022/06/24 03:38:51;;;;;;;16.08;12.27;;;;;;;18.51;100.00;100687.81;4999881;28;20044;-85
2022/06/24 03:41:16;;;;;;;15.48;13.10;;;;;;;18.50;100.00;100687.94;5032382;28;20171;-85
2022/06/24 03:43:42;;;;;;;17.77;13.23;;;;;;;18.49;100.00;100680.84;5032307;28;20536;-85
2022/06/24 03:46:07;;;;;;;16.38;12.32;;;;;;;18.48;100.00;100671.13;5029329;28;20109;-87
2022/06/24 03:48:33;;;;;;;17.58;13.55;;;;;;;18.45;100.00;100664.19;5005480;28;20065;-86
2022/06/24 03:50:58;;;;;;;16.63;13.32;;;;;;;18.45;100.00;100666.00;5016970;28;20060;-86
2022/06/24 03:53:24;;;;;;;14.60;12.02;;;;;;;18.45;100.00;100660.66;5016103;28;20052;-86
2022/06/24 03:55:50;;;;;;;14.95;12.38;;;;;;;18.45;100.00;100661.50;5032388;28;20033;-86
2022/06/24 03:58:19;;;;;;;16.17;12.70;;;;;;;18.48;100.00;100665.78;5015456;28;20068;-86
2022/06/24 04:00:45;;;;;;;16.50;11.50;;;;;;;18.48;100.00;100666.63;5015760;28;20056;-85
2022/06/24 04:03:11;;;;;;;15.13;12.27;;;;;;;18.49;100.00;100671.00;5033306;28;20022;-85
2022/06/24 04:05:37;;;;;;;16.25;12.45;;;;;;;18.48;100.00;100663.94;5032382;28;20033;-86
2022/06/24 04:08:03;;;;;;;18.13;13.02;;;;;;;18.44;100.00;100656.25;5033417;28;20063;-86
2022/06/24 04:10:29;;;;;;;14.80;12.68;;;;;;;18.42;100.00;100656.38;5015370;28;20429;-84
2022/06/24 04:12:54;;;;;;;17.98;14.00;;;;;;;18.42;100.00;100655.53;4996070;28;20029;-87
2022/06/24 04:15:20;;;;;;;16.30;13.70;;;;;;;18.42;100.00;100645.66;5012743;28;20041;-88
2022/06/24 04:17:47;;;;;;;17.30;14.35;;;;;;;18.41;100.00;100641.25;5012111;28;20499;-86
2022/06/24 04:20:17;;;;;;;17.00;13.93;;;;;;;18.42;100.00;100639.47;5023981;28;20044;-88
2022/06/24 04:22:43;;;;;;;17.67;14.05;;;;;;;18.41;100.00;100633.22;5015719;28;20082;-88
2022/06/24 04:25:10;;;;;;;17.08;14.15;;;;;;;18.40;100.00;100619.94;5015980;28;20491;-85
2022/06/24 04:27:36;;;;;;;19.20;14.63;;;;;;;18.45;100.00;100612.38;5015915;28;20044;-85
2022/06/24 04:30:04;;;;;;;19.23;14.00;;;;;;;18.46;100.00;100612.25;5015812;28;20025;-84
2022/06/24 04:32:30;;;;;;;16.80;14.02;;;;;;;18.50;100.00;100618.22;5031695;28;20124;-85
2022/06/24 04:34:55;;;;;;;16.15;13.43;;;;;;;18.53;100.00;100620.66;5031921;28;20163;-85
2022/06/24 04:37:21;;;;;;;17.40;13.63;;;;;;;18.50;100.00;100620.91;5015086;28;20131;-85
2022/06/24 04:39:46;;;;;;;15.43;12.73;;;;;;;18.54;100.00;100621.50;5015111;28;20041;-85
2022/06/24 04:42:12;;;;;;;15.88;13.18;;;;;;;18.62;100.00;100625.28;4998859;28;20068;-87
2022/06/24 04:44:38;;;;;;;19.08;14.55;;;;;;;18.70;100.00;100623.78;4993910;28;20072;-86
2022/06/24 04:47:04;;;;;;;17.10;14.27;;;;;;;18.71;100.00;100615.63;5015024;28;20044;-85
2022/06/24 04:49:29;;;;;;;17.08;14.38;;;;;;;18.72;100.00;100611.09;5031934;28;20036;-85
2022/06/24 04:51:55;;;;;;;18.02;14.05;;;;;;;18.77;100.00;100616.91;4998039;28;20540;-85
2022/06/24 04:54:21;;;;;;;21.73;14.07;;;;;;;18.78;100.00;100611.41;5011022;28;20038;-84
2022/06/24 04:56:47;;;;;;;18.70;14.15;;;;;;;18.81;100.00;100613.88;5012022;28;20049;-85
2022/06/24 04:59:12;;;;;;;16.50;13.77;;;;;;;18.89;100.00;100613.22;5004882;28;20048;-85
2022/06/24 05:01:40;;;;;;;14.98;13.38;;;;;;;18.92;100.00;100612.97;4997768;28;20478;-86
2022/06/24 05:04:06;;;;;;;19.73;14.43;;;;;;;18.92;100.00;100612.97;4998705;28;20033;-84
2022/06/24 05:06:31;;;;;;;17.13;13.20;;;;;;;18.92;100.00;100626.41;4998716;28;20034;-85
2022/06/24 05:08:57;;;;;;;15.88;14.00;;;;;;;18.82;100.00;100628.13;5024227;28;20030;-85
2022/06/24 05:11:23;;;;;;;16.15;13.65;;;;;;;18.83;100.00;100627.16;5007680;28;20030;-83
2022/06/24 05:13:48;;;;;;;16.15;13.38;;;;;;;18.88;100.00;100626.78;5010084;28;20072;-79
2022/06/24 05:16:14;;;;;;;20.85;14.02;;;;;;;18.95;100.00;100619.94;4996940;28;20500;-79
2022/06/24 05:18:39;;;;;;;17.65;13.80;;;;;;;19.01;100.00;100614.03;5014751;28;20449;-79
2022/06/24 05:21:05;;;;;;;15.98;13.75;;;;;;;19.06;100.00;100616.34;5030827;28;20037;-78
2022/06/24 05:23:30;;;;;;;21.17;15.48;;;;;;;19.07;100.00;100610.84;5013991;28;20095;-78
2022/06/24 05:25:56;;;;;;;19.63;15.40;;;;;;;19.15;100.00;100623.63;5030247;28;20056;-79
2022/06/24 05:28:21;;;;;;;16.05;14.13;;;;;;;19.19;100.00;100617.00;5032631;28;20046;-79
2022/06/24 05:30:47;;;;;;;18.20;14.13;;;;;;;19.20;100.00;100624.09;5034596;28;20033;-79
2022/06/24 05:33:12;;;;;;;20.20;15.50;;;;;;;19.21;100.00;100636.53;5018161;28;20485;-78
2022/06/24 05:35:38;;;;;;;19.38;15.07;;;;;;;19.18;100.00;100628.72;5017138;28;20672;-78
2022/06/24 05:38:03;;;;;;;20.80;17.33;;;;;;;19.17;100.00;100640.47;5006635;28;20030;-78
2022/06/24 05:40:29;;;;;;;25.20;18.20;;;;;;;19.16;100.00;100633.38;5015160;28;20548;-79
2022/06/24 05:42:54;;;;;;;23.05;19.10;;;;;;;19.12;100.00;100627.41;4996710;28;20025;-79
2022/06/24 05:45:20;;;;;;;27.80;20.77;;;;;;;19.17;100.00;100621.66;5001685;28;20429;-79
2022/06/24 05:47:45;;;;;;;27.17;20.17;;;;;;;19.21;100.00;100631.16;5001564;28;20063;-78
2022/06/24 05:50:10;;;;;;;27.20;22.40;;;;;;;19.23;100.00;100637.22;5018165;28;20029;-78
2022/06/24 05:55:20;;;;;;;27.92;22.52;;;;;;;19.22;100.00;100638.25;5020171;28;20048;-79
2022/06/24 05:57:46;;;;;;;31.40;22.02;;;;;;;19.25;100.00;100637.97;4997392;28;20049;-78
2022/06/24 06:00:12;;;;;;;31.05;23.00;;;;;;;19.21;100.00;100644.56;5013530;28;20040;-78
2022/06/24 06:02:40;;;;;;;31.80;23.25;;;;;;;19.21;100.00;100649.94;5015290;28;20018;-79
2022/06/24 06:05:06;;;;;;;34.40;25.70;;;;;;;19.22;100.00;100653.47;5034767;28;20050;-79
2022/06/24 06:07:31;;;;;;;37.22;27.67;;;;;;;19.23;100.00;100645.28;5034519;28;20488;-79
2022/06/24 06:09:56;;;;;;;36.83;28.30;;;;;;;19.25;100.00;100645.19;5017348;28;20048;-79
2022/06/24 06:12:22;;;;;;;42.10;29.52;;;;;;;19.22;100.00;100640.91;5033622;28;20029;-81
2022/06/24 06:14:48;;;;;;;35.13;27.60;;;;;;;19.17;100.00;100637.78;5015593;28;20029;-78
2022/06/24 06:17:13;;;;;;;33.67;24.55;;;;;;;19.16;100.00;100647.66;5033339;28;20089;-78
2022/06/24 06:19:39;;;;;;;18.38;14.15;;;;;;;19.16;100.00;100652.16;5000543;28;20103;-79
2022/06/24 06:22:04;;;;;;;13.63;10.82;;;;;;;18.98;100.00;100651.88;5015087;28;20078;-79
2022/06/24 06:24:30;;;;;;;13.77;10.18;;;;;;;18.97;100.00;100659.06;5033567;28;20037;-79
2022/06/24 06:26:57;;;;;;;16.90;10.68;;;;;;;18.94;100.00;100656.66;5016870;28;20374;-79
2022/06/24 06:29:22;;;;;;;15.45;10.48;;;;;;;18.92;100.00;100663.97;5010587;28;20030;-77
2022/06/24 06:31:50;;;;;;;14.75;10.20;;;;;;;18.95;100.00;100658.38;5032983;28;20037;-77
2022/06/24 06:34:16;;;;;;;19.48;12.90;;;;;;;18.92;100.00;100661.28;5030250;28;20082;-77
2022/06/24 06:36:42;;;;;;;17.77;13.00;;;;;;;18.96;100.00;100667.25;5027278;28;20120;-78
2022/06/24 06:39:07;;;;;;;16.95;13.30;;;;;;;18.94;100.00;100662.03;5028860;28;20059;-78
2022/06/24 06:41:33;;;;;;;18.17;12.93;;;;;;;18.95;100.00;100662.84;5015772;28;20033;-78
2022/06/24 06:43:58;;;;;;;18.23;13.38;;;;;;;18.97;100.00;100656.38;5015367;28;20033;-78
2022/06/24 06:46:24;;;;;;;20.48;13.75;;;;;;;19.01;100.00;100656.16;5024334;28;20183;-79
2022/06/24 06:48:49;;;;;;;20.30;14.13;;;;;;;18.88;100.00;100664.34;5009178;28;20025;-78
2022/06/24 06:51:15;;;;;;;21.98;14.40;;;;;;;18.97;100.00;100671.63;5000727;28;20044;-77
2022/06/24 06:53:40;;;;;;;24.75;15.77;;;;;;;19.07;100.00;100671.75;5031446;28;20029;-78
2022/06/24 06:56:05;;;;;;;16.88;13.02;;;;;;;19.14;100.00;100667.53;5034529;28;20047;-79
2022/06/24 06:58:31;;;;;;;14.65;9.98;;;;;;;19.15;100.00;100675.47;5019262;28;20448;-79
2022/06/24 07:00:56;;;;;;;15.07;10.65;;;;;;;19.27;100.00;100664.66;5026993;28;20112;-79
2022/06/24 07:03:22;;;;;;;14.38;9.95;;;;;;;19.39;100.00;100676.22;5016964;28;20026;-78
2022/06/24 07:05:48;;;;;;;13.55;9.15;;;;;;;19.56;100.00;100672.09;5013257;28;20060;-79
2022/06/24 07:08:15;;;;;;;13.18;8.80;;;;;;;19.79;100.00;100683.53;5034591;28;20481;-78
2022/06/24 07:10:42;;;;;;;13.10;8.88;;;;;;;19.88;100.00;100676.56;5001282;28;20045;-78
2022/06/24 07:13:08;;;;;;;13.73;9.55;;;;;;;19.94;100.00;100673.34;5028473;28;20029;-78
2022/06/24 07:15:34;;;;;;;12.48;9.40;;;;;;;19.97;100.00;100678.44;5037010;28;20076;-79
2022/06/24 07:17:59;;;;;;;13.27;9.60;;;;;;;20.00;100.00;100680.00;5033251;28;20034;-80
2022/06/24 07:20:25;;;;;;;13.27;9.73;;;;;;;20.03;100.00;100683.28;5021101;28;20030;-79
2022/06/24 07:22:51;;;;;;;16.25;10.98;;;;;;;20.05;100.00;100684.00;5030373;28;20048;-79
2022/06/24 07:25:16;;;;;;;16.70;10.82;;;;;;;20.05;100.00;100678.63;5031798;28;20474;-79
2022/06/24 07:27:42;;;;;;;16.73;11.85;;;;;;;20.22;100.00;100668.22;5032439;28;20538;-79
2022/06/24 07:30:08;;;;;;;16.15;11.52;;;;;;;20.28;100.00;100671.22;5008696;28;20037;-79
2022/06/24 07:32:33;;;;;;;17.50;11.93;;;;;;;20.34;100.00;100666.28;5015650;28;20026;-79
2022/06/24 07:34:59;;;;;;;13.82;10.23;;;;;;;20.35;100.00;100659.91;5027791;28;20038;-79
2022/06/24 07:37:24;;;;;;;14.05;11.10;;;;;;;20.32;100.00;100655.66;5013825;28;20497;-79
2022/06/24 07:39:50;;;;;;;15.23;10.35;;;;;;;20.38;100.00;100659.63;5027217;28;20102;-79
2022/06/24 07:42:15;;;;;;;14.10;10.00;;;;;;;20.32;100.00;100658.34;5009055;28;20113;-79
2022/06/24 07:44:43;;;;;;;15.63;10.82;;;;;;;20.41;100.00;100652.16;5025493;28;20076;-79
2022/06/24 07:47:11;;;;;;;14.80;10.20;;;;;;;20.50;100.00;100668.44;5012111;28;20115;-79
2022/06/24 07:49:39;;;;;;;17.55;11.55;;;;;;;20.60;100.00;100667.47;4999648;28;20044;-77
2022/06/24 07:52:09;;;;;;;16.38;12.38;;;;;;;20.58;100.00;100652.47;5014552;28;20126;-77
2022/06/24 07:54:35;;;;;;;16.45;12.23;;;;;;;20.51;100.00;100665.63;5031991;28;20021;-77
2022/06/24 07:57:01;;;;;;;20.15;13.13;;;;;;;20.51;100.00;100654.00;5015450;28;20152;-78
2022/06/24 07:59:32;;;;;;;17.05;12.25;;;;;;;20.54;100.00;100662.66;4998928;28;20038;-77
2022/06/24 08:02:00;;;;;;;17.60;12.70;;;;;;;20.64;100.00;100657.31;5033095;28;20065;-78
2022/06/24 08:04:28;;;;;;;20.17;13.10;;;;;;;20.79;100.00;100649.69;4999273;28;20108;-78
2022/06/24 08:06:54;;;;;;;18.38;13.13;;;;;;;20.96;100.00;100653.53;5026545;28;20029;-79
2022/06/24 08:09:25;;;;;;;16.67;11.80;;;;;;;21.30;100.00;100658.47;4998833;28;20096;-78
2022/06/24 08:11:51;;;;;;;16.98;13.18;;;;;;;21.48;100.00;100660.44;5027798;28;20505;-78
2022/06/24 08:14:17;;;;;;;16.70;12.18;;;;;;;21.60;100.00;100668.25;5022258;28;20057;-79
2022/06/24 08:16:43;;;;;;;17.05;12.82;;;;;;;21.56;100.00;100660.59;5032534;28;20068;-78
2022/06/24 08:19:09;;;;;;;15.48;12.80;;;;;;;21.60;100.00;100660.16;5031657;28;20120;-78
2022/06/24 08:21:34;;;;;;;18.33;13.07;;;;;;;21.55;100.00;100659.75;5030178;28;20038;-78
2022/06/24 08:24:00;;;;;;;16.73;12.85;;;;;;;21.63;100.00;100658.19;5030895;28;20049;-78
2022/06/24 08:26:26;;;;;;;16.83;12.48;;;;;;;21.71;100.00;100659.13;5030888;28;20488;-78
2022/06/24 08:28:51;;;;;;;16.20;14.05;;;;;;;21.89;100.00;100658.38;5031265;28;20711;-78
2022/06/24 08:31:17;;;;;;;17.05;13.00;;;;;;;22.09;100.00;100657.28;5010301;28;20033;-79
2022/06/24 08:33:42;;;;;;;17.70;12.98;;;;;;;22.39;100.00;100655.34;4997734;28;20500;-79
2022/06/24 08:36:08;;;;;;;15.30;12.50;;;;;;;23.01;98.40;100648.41;5031104;28;20447;-78
2022/06/24 08:38:34;;;;;;;16.98;13.65;;;;;;;23.53;93.98;100642.22;5030823;28;20401;-79
2022/06/24 08:41:01;;;;;;;18.27;13.68;;;;;;;23.53;90.68;100647.63;5024682;28;20037;-79
2022/06/24 08:43:32;;;;;;;18.50;12.88;;;;;;;23.34;92.88;100646.00;5022308;28;20092;-79
2022/06/24 08:45:59;;;;;;;21.35;13.10;;;;;;;23.07;91.67;100654.03;5021960;28;20014;-79
2022/06/24 08:48:29;;;;;;;18.33;13.52;;;;;;;22.92;92.68;100652.88;5030898;28;20034;-79
2022/06/24 08:50:55;;;;;;;19.08;14.25;;;;;;;22.68;96.03;100651.59;5016682;28;20080;-79
2022/06/24 08:53:27;;;;;;;19.60;13.75;;;;;;;22.37;97.07;100657.34;5037894;28;20029;-79
2022/06/24 08:55:54;;;;;;;18.77;13.63;;;;;;;22.45;97.13;100658.44;5032780;28;20022;-79
2022/06/24 08:58:20;;;;;;;18.38;13.77;;;;;;;22.33;96.81;100657.75;5039980;28;20093;-78
2022/06/24 09:00:45;;;;;;;29.60;15.25;;;;;;;22.16;96.67;100649.47;5033581;28;20060;-79
2022/06/24 09:03:11;;;;;;;40.10;18.80;;;;;;;22.30;95.53;100650.81;5006527;28;20443;-79
2022/06/24 09:05:40;;;;;;;19.95;13.25;;;;;;;22.27;96.69;100651.97;5035529;28;20029;-78
2022/06/24 09:08:09;;;;;;;20.95;14.02;;;;;;;22.31;95.10;100654.38;5039096;28;20098;-79
2022/06/24 09:10:36;;;;;;;18.35;13.55;;;;;;;22.48;97.48;100656.31;5034488;28;20036;-80
2022/06/24 09:13:03;;;;;;;19.70;13.18;;;;;;;22.57;95.23;100662.63;5042839;28;20520;-79
2022/06/24 09:15:29;;;;;;;17.48;12.68;;;;;;;22.76;94.96;100664.34;5033036;28;20025;-79
2022/06/24 09:17:55;;;;;;;17.05;12.30;;;;;;;23.03;93.56;100643.66;5034683;28;20168;-79
2022/06/24 09:20:23;;;;;;;18.33;13.65;;;;;;;23.47;90.05;100651.00;5014708;28;20045;-79
2022/06/24 09:22:50;;;;;;;18.25;13.00;;;;;;;23.70;89.18;100646.75;5012389;28;20112;-79
2022/06/24 09:25:16;;;;;;;18.27;12.75;;;;;;;23.80;87.35;100652.06;5001890;28;20467;-79
2022/06/24 09:27:46;;;;;;;15.18;11.82;;;;;;;24.15;85.55;100650.22;5034790;28;20140;-80
2022/06/24 09:30:15;;;;;;;15.10;10.77;;;;;;;25.08;83.09;100644.88;5029951;28;20025;-80
2022/06/24 09:32:55;;;;;;;15.00;10.77;;;;;;;25.68;78.82;100644.53;5000149;28;20034;-80
2022/06/24 09:35:22;;;;;;;14.65;10.55;;;;;;;26.13;76.76;100646.81;5035017;28;20103;-80
2022/06/24 09:37:50;;;;;;;15.48;11.60;;;;;;;26.72;74.08;100642.75;5031376;28;20029;-80
2022/06/24 09:40:24;;;;;;;15.40;11.00;;;;;;;26.72;72.85;100642.75;5032647;28;20029;-80
2022/06/24 09:42:55;;;;;;;14.90;9.75;;;;;;;26.60;75.04;100635.03;5034104;28;20048;-80
2022/06/24 09:45:22;;;;;;;15.65;11.20;;;;;;;26.58;70.95;100642.50;5032476;28;20052;-79
2022/06/24 09:47:50;;;;;;;17.45;10.93;;;;;;;26.07;76.00;100652.94;5033835;28;20057;-79
2022/06/24 09:50:17;;;;;;;16.35;11.25;;;;;;;25.80;76.05;100644.16;5033883;28;20029;-79
2022/06/24 09:52:43;;;;;;;15.98;13.38;;;;;;;25.99;75.54;100645.63;5016703;28;20026;-80
2022/06/24 09:55:10;;;;;;;17.70;13.23;;;;;;;25.88;75.02;100646.00;5032752;28;20080;-80
2022/06/24 09:57:35;;;;;;;16.13;12.52;;;;;;;26.63;72.96;100648.22;5033730;28;20049;-80
2022/06/24 10:02:46;;;;;;;16.45;9.27;;;;;;;28.02;65.45;100649.09;5032620;28;20087;-80
2022/06/24 10:05:15;;;;;;;15.48;9.13;;;;;;;27.71;68.42;100655.56;5017414;28;20037;-81
2022/06/24 10:07:45;;;;;;;12.27;8.60;;;;;;;27.71;68.35;100644.69;5033775;28;20026;-81
2022/06/24 10:10:13;;;;;;;12.57;9.43;;;;;;;27.27;63.73;100643.56;5034557;28;20033;-82
2022/06/24 10:12:41;;;;;;;14.55;10.20;;;;;;;26.85;67.68;100644.91;5033868;28;20029;-82
2022/06/24 10:15:06;;;;;;;19.40;10.73;;;;;;;26.55;71.93;100640.16;5032414;28;20026;-82
2022/06/24 10:17:34;;;;;;;11.57;8.05;;;;;;;26.24;67.70;100645.56;5002006;28;20404;-81
2022/06/24 10:20:01;;;;;;;11.93;7.00;;;;;;;25.31;69.28;100645.91;5034608;28;20033;-83
2022/06/24 10:22:45;;;;;;;8.95;5.07;;;;;;;24.74;72.27;100644.00;5032117;28;20040;-81
2022/06/24 10:25:16;;;;;;;7.95;4.10;;;;;;;24.37;72.71;100645.22;5027322;28;20022;-79
2022/06/24 10:28:00;;;;;;;8.88;3.85;;;;;;;23.82;71.99;100660.84;5032683;28;20033;-79
2022/06/24 10:30:40;;;;;;;6.53;3.30;;;;;;;24.01;70.98;100654.38;5026352;28;20029;-80
2022/06/24 10:33:13;;;;;;;3.92;2.58;;;;;;;24.49;69.49;100643.94;5033548;28;20381;-80
2022/06/24 10:36:06;;;;;;;6.95;3.10;;;;;;;25.38;66.33;100640.66;5017605;28;20034;-80
2022/06/24 10:38:41;;;;;;;5.95;3.03;;;;;;;26.26;64.05;100648.94;5034469;28;20109;-80
2022/06/24 10:41:11;;;;;;;8.98;3.70;;;;;;;26.98;61.08;100634.25;5033343;28;20029;-79
2022/06/24 10:43:38;;;;;;;;;;;;;;;27.12;58.85;100638.94;5029926;28;20293;-79
2022/06/24 10:46:13;;;;;;;8.65;4.30;;;;;;;27.04;60.41;100636.25;5032199;28;19912;-80
2022/06/24 10:48:44;;;;;;;8.85;4.25;;;;;;;27.23;59.62;100634.09;5032962;28;20037;-80
2022/06/24 10:51:21;;;;;;;7.05;3.83;;;;;;;27.76;56.28;100629.50;5034510;28;20033;-81
2022/06/24 10:54:01;;;;;;;12.00;4.78;;;;;;;28.03;54.17;100638.06;5016564;28;20128;-81
2022/06/24 10:56:39;;;;;;;7.55;3.25;;;;;;;28.30;53.36;100624.78;5034128;28;20075;-81
2022/06/24 10:59:04;;;;;;;3.78;2.97;;;;;;;27.84;52.35;100635.84;5023522;28;20030;-80
2022/06/24 11:01:31;;;;;;;5.07;2.78;;;;;;;27.84;49.91;100630.41;5002748;28;20043;-80
2022/06/24 11:03:59;;;;;;;4.78;2.50;;;;;;;27.57;51.05;100625.44;5034609;28;20080;-80
2022/06/24 11:06:24;;;;;;;4.32;2.50;;;;;;;26.75;54.87;100629.69;5016366;28;20029;-80
2022/06/24 11:08:49;;;;;;;4.45;2.53;;;;;;;26.21;52.55;100616.06;5012055;28;20032;-81
2022/06/24 11:11:41;;;;;;;6.60;2.60;;;;;;;25.15;56.13;100618.81;5032973;28;20381;-81
2022/06/24 11:14:23;;;;;;;3.90;2.60;;;;;;;24.72;58.37;100615.41;5013545;28;20045;-81
2022/06/24 11:16:49;;;;;;;5.70;2.60;;;;;;;24.40;60.25;100617.84;5032325;28;20132;-80
2022/06/24 11:19:15;;;;;;;5.00;2.67;;;;;;;24.33;60.56;100622.22;5011512;28;20141;-80
2022/06/24 11:21:51;;;;;;;3.85;2.63;;;;;;;24.21;59.92;100617.09;5013246;28;20057;-80
2022/06/24 11:24:19;;;;;;;6.22;2.60;;;;;;;24.23;62.35;100616.94;5029672;28;20056;-80